createdAt,value
2023-02-12T00:00:24.925Z,99.90
2023-02-12T00:01:29.228Z,99.90
2023-02-12T00:02:33.496Z,99.90
2023-02-12T00:03:37.097Z,99.90
2023-02-12T00:04:41.168Z,99.90
2023-02-12T00:05:43.802Z,99.90
2023-02-12T00:06:47.830Z,99.90
2023-02-12T00:07:50.524Z,99.90
2023-02-12T00:08:56.428Z,99.90
2023-02-12T00:10:00.683Z,99.90
2023-02-12T00:11:10.635Z,99.90
2023-02-12T00:12:13.592Z,99.90
2023-02-12T00:13:17.654Z,99.90
2023-02-12T00:14:21.640Z,99.90
2023-02-12T00:15:24.538Z,99.90
2023-02-12T00:16:29.922Z,99.90
2023-02-12T00:17:32.391Z,99.90
2023-02-12T00:18:35.884Z,99.90
2023-02-12T00:19:38.957Z,99.90
2023-02-12T00:20:42.842Z,99.90
2023-02-12T00:21:45.569Z,99.90
2023-02-12T00:22:49.409Z,99.90
2023-02-12T00:23:51.839Z,99.90
2023-02-12T00:24:55.604Z,99.90
2023-02-12T00:25:59.934Z,99.90
2023-02-12T00:27:03.460Z,99.90
2023-02-12T00:28:06.817Z,99.90
2023-02-12T00:29:11.402Z,99.90
2023-02-12T00:30:17.080Z,99.90
2023-02-12T00:31:22.923Z,99.90
2023-02-12T00:32:25.572Z,99.90
2023-02-12T00:33:28.914Z,99.90
2023-02-12T00:34:31.457Z,99.90
2023-02-12T00:35:35.156Z,99.90
2023-02-12T00:36:37.746Z,99.90
2023-02-12T00:37:41.909Z,99.90
2023-02-12T00:38:44.612Z,99.90
2023-02-12T00:39:48.435Z,99.90
2023-02-12T00:40:51.156Z,99.90
2023-02-12T00:41:56.625Z,99.90
2023-02-12T00:42:59.042Z,99.90
2023-02-12T00:44:02.623Z,99.90
2023-02-12T00:45:06.009Z,99.90
2023-02-12T00:46:10.065Z,99.90
2023-02-12T00:47:13.024Z,99.90
2023-02-12T00:48:17.357Z,99.90
2023-02-12T00:49:21.521Z,99.90
2023-02-12T00:50:23.920Z,99.90
2023-02-12T00:51:27.514Z,99.90
2023-02-12T00:52:30.157Z,99.90
2023-02-12T00:53:34.854Z,99.90
2023-02-12T00:54:38.109Z,99.90
2023-02-12T00:55:42.271Z,99.90
2023-02-12T00:56:45.171Z,99.90
2023-02-12T00:57:50.086Z,99.90
2023-02-12T00:58:52.584Z,99.90
2023-02-12T00:59:56.022Z,99.90
2023-02-12T01:00:59.523Z,99.90
2023-02-12T01:02:03.472Z,99.90
2023-02-12T01:03:06.512Z,99.90
2023-02-12T01:04:09.941Z,99.90
2023-02-12T01:05:12.644Z,99.90
2023-02-12T01:06:16.041Z,99.90
2023-02-12T01:07:19.004Z,99.90
2023-02-12T01:08:23.014Z,99.90
2023-02-12T01:09:26.309Z,99.90
2023-02-12T01:10:30.000Z,99.90
2023-02-12T01:11:32.732Z,99.90
2023-02-12T01:12:36.492Z,99.90
2023-02-12T01:13:42.204Z,99.90
2023-02-12T01:14:45.904Z,99.90
2023-02-12T01:15:48.511Z,99.90
2023-02-12T01:16:53.439Z,99.90
2023-02-12T01:17:56.678Z,99.90
2023-02-12T01:19:00.761Z,99.90
2023-02-12T01:20:05.928Z,99.90
2023-02-12T01:21:15.634Z,99.90
2023-02-12T01:22:18.214Z,99.90
2023-02-12T01:23:22.195Z,99.90
2023-02-12T01:24:24.850Z,99.90
2023-02-12T01:25:28.349Z,99.90
2023-02-12T01:26:32.174Z,99.90
2023-02-12T01:27:39.051Z,99.90
2023-02-12T01:28:46.217Z,99.90
2023-02-12T01:29:49.913Z,99.90
2023-02-12T01:30:52.688Z,99.90
2023-02-12T01:31:56.460Z,99.90
2023-02-12T01:33:00.899Z,99.90
2023-02-12T01:34:06.469Z,99.90
2023-02-12T01:35:10.541Z,99.90
2023-02-12T01:36:14.049Z,99.90
2023-02-12T01:37:16.892Z,99.90
2023-02-12T01:38:20.231Z,99.90
2023-02-12T01:39:23.230Z,99.90
2023-02-12T01:40:27.078Z,99.60
2023-02-12T01:41:32.278Z,99.90
2023-02-12T01:42:36.924Z,99.90
2023-02-12T01:43:40.614Z,99.20
2023-02-12T01:45:07.516Z,99.90
2023-02-12T01:46:15.361Z,99.90
2023-02-12T01:47:18.740Z,99.90
2023-02-12T01:48:27.404Z,99.90
2023-02-12T01:49:37.974Z,99.90
2023-02-12T01:50:42.199Z,99.40
2023-02-12T01:51:51.764Z,99.20
2023-02-12T01:52:59.409Z,99.20
2023-02-12T01:54:08.597Z,99.10
2023-02-12T01:55:11.827Z,99.20
2023-02-12T01:56:16.578Z,99.80
2023-02-12T01:57:20.143Z,99.50
2023-02-12T01:58:27.773Z,99.60
2023-02-12T01:59:33.316Z,99.50
2023-02-12T02:00:39.239Z,99.60
2023-02-12T02:01:43.351Z,99.70
2023-02-12T02:02:51.318Z,99.80
2023-02-12T02:04:00.703Z,99.90
2023-02-12T02:05:05.933Z,99.90
2023-02-12T02:06:15.273Z,99.90
2023-02-12T02:07:18.479Z,99.70
2023-02-12T02:08:22.500Z,99.90
2023-02-12T02:09:25.975Z,99.50
2023-02-12T02:10:32.726Z,99.40
2023-02-12T02:11:53.620Z,99.50
2023-02-12T02:13:14.985Z,99.40
2023-02-12T02:14:32.945Z,99.50
2023-02-12T02:15:48.364Z,98.70
2023-02-12T02:17:06.737Z,99.90
2023-02-12T02:18:22.180Z,99.10
2023-02-12T02:19:39.585Z,99.30
2023-02-12T02:21:16.078Z,99.30
2023-02-12T02:22:32.095Z,99.40
2023-02-12T02:24:20.872Z,99.30
2023-02-12T02:25:47.496Z,98.30
2023-02-12T02:27:15.174Z,99.10
2023-02-12T02:28:48.984Z,99.00
2023-02-12T02:30:21.589Z,98.70
2023-02-12T02:31:32.516Z,98.60
2023-02-12T02:32:42.476Z,98.60
2023-02-12T02:33:56.371Z,98.60
2023-02-12T02:35:10.989Z,99.00
2023-02-12T02:36:26.529Z,98.60
2023-02-12T02:37:36.421Z,98.70
2023-02-12T02:38:46.185Z,98.70
2023-02-12T02:39:54.835Z,98.90
2023-02-12T02:41:06.023Z,98.70
2023-02-12T02:42:16.864Z,98.80
2023-02-12T02:43:29.076Z,98.70
2023-02-12T02:44:39.384Z,98.90
2023-02-12T02:45:48.432Z,98.90
2023-02-12T02:46:54.644Z,99.70
2023-02-12T02:48:05.430Z,99.20
2023-02-12T02:49:15.691Z,99.70
2023-02-12T02:50:25.018Z,99.10
2023-02-12T02:51:32.515Z,98.90
2023-02-12T02:52:43.331Z,98.80
2023-02-12T02:53:52.913Z,98.70
2023-02-12T02:55:03.120Z,98.70
2023-02-12T02:56:11.807Z,98.60
2023-02-12T02:57:21.041Z,98.80
2023-02-12T02:58:31.036Z,99.10
2023-02-12T02:59:39.584Z,98.90
2023-02-12T03:00:49.062Z,98.70
2023-02-12T03:01:57.801Z,98.90
2023-02-12T03:03:10.266Z,98.80
2023-02-12T03:04:23.141Z,99.10
2023-02-12T03:05:33.076Z,99.00
2023-02-12T03:06:45.262Z,99.50
2023-02-12T03:07:52.819Z,98.90
2023-02-12T03:09:02.850Z,99.00
2023-02-12T03:10:16.013Z,99.00
2023-02-12T03:11:27.907Z,99.10
2023-02-12T03:12:37.307Z,99.00
2023-02-12T03:13:47.916Z,98.90
2023-02-12T03:14:59.020Z,98.90
2023-02-12T03:16:10.170Z,98.90
2023-02-12T03:17:18.519Z,98.20
2023-02-12T03:18:29.541Z,98.50
2023-02-12T03:19:38.245Z,98.40
2023-02-12T03:20:48.302Z,98.40
2023-02-12T03:21:57.192Z,98.60
2023-02-12T03:23:08.882Z,98.50
2023-02-12T03:24:17.113Z,98.50
2023-02-12T03:25:27.111Z,99.20
2023-02-12T03:26:40.652Z,98.50
2023-02-12T03:27:48.461Z,98.10
2023-02-12T03:28:51.896Z,98.10
2023-02-12T03:29:56.742Z,98.20
2023-02-12T03:31:29.612Z,97.90
2023-02-12T03:32:44.736Z,98.80
2023-02-12T03:34:03.727Z,98.40
2023-02-12T03:35:14.872Z,98.70
2023-02-12T03:36:31.628Z,98.30
2023-02-12T03:37:41.917Z,98.00
2023-02-12T03:38:51.188Z,97.90
2023-02-12T03:39:59.491Z,98.10
2023-02-12T03:41:10.846Z,97.50
2023-02-12T03:42:19.049Z,98.20
2023-02-12T03:43:30.977Z,98.10
2023-02-12T03:44:53.706Z,98.20
2023-02-12T03:46:03.223Z,97.70
2023-02-12T03:47:22.303Z,97.90
2023-02-12T03:48:34.830Z,97.60
2023-02-12T03:49:47.202Z,97.80
2023-02-12T03:50:57.632Z,97.90
2023-02-12T03:52:00.263Z,98.00
2023-02-12T03:53:04.167Z,97.60
2023-02-12T03:54:10.939Z,97.60
2023-02-12T03:55:15.679Z,97.70
2023-02-12T03:56:24.192Z,97.60
2023-02-12T03:57:34.496Z,97.70
2023-02-12T03:58:41.913Z,97.50
2023-02-12T03:59:46.205Z,97.30
2023-02-12T04:00:48.778Z,97.50
2023-02-12T04:01:55.381Z,97.70
2023-02-12T04:03:00.059Z,97.70
2023-02-12T04:04:08.093Z,97.50
2023-02-12T04:05:18.716Z,97.50
2023-02-12T04:06:25.807Z,97.20
2023-02-12T04:07:28.402Z,97.10
2023-02-12T04:08:33.766Z,97.30
2023-02-12T04:09:39.635Z,97.30
2023-02-12T04:10:57.802Z,97.30
2023-02-12T04:12:25.910Z,97.40
2023-02-12T04:13:42.846Z,98.10
2023-02-12T04:14:56.306Z,97.30
2023-02-12T04:16:15.215Z,97.30
2023-02-12T04:17:31.053Z,97.50
2023-02-12T04:18:43.178Z,97.50
2023-02-12T04:20:01.450Z,97.30
2023-02-12T04:21:17.394Z,97.20
2023-02-12T04:22:38.072Z,97.30
2023-02-12T04:23:50.776Z,97.40
2023-02-12T04:25:06.807Z,97.40
2023-02-12T04:26:19.891Z,97.00
2023-02-12T04:27:29.722Z,97.30
2023-02-12T04:28:48.775Z,97.30
2023-02-12T04:29:59.305Z,97.20
2023-02-12T04:31:08.717Z,97.10
2023-02-12T04:32:19.691Z,97.20
2023-02-12T04:33:28.603Z,96.90
2023-02-12T04:34:40.541Z,96.90
2023-02-12T04:35:50.041Z,96.90
2023-02-12T04:37:03.873Z,97.70
2023-02-12T04:38:15.448Z,97.00
2023-02-12T04:39:24.340Z,97.20
2023-02-12T04:40:28.109Z,97.30
2023-02-12T04:41:33.270Z,96.00
2023-02-12T04:42:43.597Z,96.70
2023-02-12T04:43:47.829Z,96.90
2023-02-12T04:44:50.590Z,96.80
2023-02-12T04:45:54.601Z,96.90
2023-02-12T04:46:57.498Z,97.10
2023-02-12T04:48:01.643Z,97.10
2023-02-12T04:49:04.160Z,97.10
2023-02-12T04:50:10.925Z,97.00
2023-02-12T04:51:14.058Z,97.00
2023-02-12T04:52:17.597Z,96.90
2023-02-12T04:53:20.243Z,97.10
2023-02-12T04:54:24.912Z,96.70
2023-02-12T04:55:27.423Z,96.30
2023-02-12T04:56:31.018Z,96.50
2023-02-12T04:57:33.474Z,96.20
2023-02-12T04:58:38.235Z,96.40
2023-02-12T04:59:40.890Z,96.30
2023-02-12T05:00:44.555Z,97.20
2023-02-12T05:01:47.503Z,96.50
2023-02-12T05:02:51.067Z,96.50
2023-02-12T05:03:54.804Z,96.40
2023-02-12T05:04:57.589Z,96.70
2023-02-12T05:06:05.605Z,96.60
2023-02-12T05:07:07.975Z,96.70
2023-02-12T05:08:11.634Z,96.70
2023-02-12T05:09:16.946Z,96.80
2023-02-12T05:10:21.166Z,96.90
2023-02-12T05:11:24.377Z,96.90
2023-02-12T05:12:28.092Z,96.90
2023-02-12T05:13:30.790Z,96.80
2023-02-12T05:14:34.758Z,96.90
2023-02-12T05:15:39.427Z,96.90
2023-02-12T05:16:42.990Z,96.80
2023-02-12T05:17:45.926Z,97.50
2023-02-12T05:18:50.348Z,95.90
2023-02-12T05:19:53.432Z,96.60
2023-02-12T05:20:58.343Z,96.60
2023-02-12T05:22:02.788Z,96.60
2023-02-12T05:23:06.538Z,96.50
2023-02-12T05:24:09.599Z,96.90
2023-02-12T05:25:13.429Z,96.20
2023-02-12T05:26:18.147Z,96.30
2023-02-12T05:27:21.716Z,96.50
2023-02-12T05:28:24.194Z,96.70
2023-02-12T05:29:27.914Z,96.70
2023-02-12T05:30:30.766Z,96.70
2023-02-12T05:31:34.917Z,96.60
2023-02-12T05:32:37.651Z,96.90
2023-02-12T05:33:44.211Z,96.40
2023-02-12T05:34:47.040Z,96.20
2023-02-12T05:35:50.845Z,96.20
2023-02-12T05:36:53.576Z,96.50
2023-02-12T05:37:58.714Z,95.40
2023-02-12T05:39:01.391Z,96.30
2023-02-12T05:40:06.027Z,96.40
2023-02-12T05:41:10.756Z,96.50
2023-02-12T05:42:14.811Z,96.50
2023-02-12T05:43:19.913Z,96.40
2023-02-12T05:44:23.865Z,96.60
2023-02-12T05:45:28.092Z,96.60
2023-02-12T05:46:32.287Z,96.70
2023-02-12T05:47:34.955Z,96.70
2023-02-12T05:48:39.674Z,96.70
2023-02-12T05:49:42.853Z,96.80
2023-02-12T05:50:46.810Z,97.10
2023-02-12T05:51:49.863Z,96.40
2023-02-12T05:52:53.621Z,96.30
2023-02-12T05:54:00.397Z,96.20
2023-02-12T05:55:04.124Z,96.30
2023-02-12T05:56:12.332Z,96.50
2023-02-12T05:57:16.136Z,96.60
2023-02-12T05:58:19.101Z,96.60
2023-02-12T05:59:24.325Z,96.50
2023-02-12T06:00:27.164Z,97.30
2023-02-12T06:01:35.756Z,96.80
2023-02-12T06:02:38.696Z,97.40
2023-02-12T06:03:43.291Z,97.30
2023-02-12T06:04:48.586Z,97.30
2023-02-12T06:05:51.862Z,97.20
2023-02-12T06:06:56.786Z,98.00
2023-02-12T06:07:59.391Z,97.10
2023-02-12T06:09:05.295Z,97.10
2023-02-12T06:10:10.559Z,97.20
2023-02-12T06:11:15.717Z,97.30
2023-02-12T06:12:19.195Z,97.50
2023-02-12T06:13:22.103Z,97.50
2023-02-12T06:14:25.755Z,97.40
2023-02-12T06:15:28.126Z,97.40
2023-02-12T06:16:32.333Z,97.30
2023-02-12T06:17:35.405Z,97.40
2023-02-12T06:18:39.224Z,97.30
2023-02-12T06:19:42.687Z,97.20
2023-02-12T06:20:46.647Z,97.10
2023-02-12T06:21:50.093Z,97.00
2023-02-12T06:22:53.491Z,96.90
2023-02-12T06:23:57.358Z,96.90
2023-02-12T06:25:01.687Z,96.90
2023-02-12T06:26:05.649Z,96.20
2023-02-12T06:27:08.040Z,96.70
2023-02-12T06:28:11.882Z,96.70
2023-02-12T06:29:16.001Z,96.60
2023-02-12T06:30:19.173Z,96.50
2023-02-12T06:31:26.079Z,96.50
2023-02-12T06:32:28.723Z,96.30
2023-02-12T06:33:33.312Z,96.40
2023-02-12T06:34:36.017Z,97.40
2023-02-12T06:35:40.106Z,96.50
2023-02-12T06:36:45.774Z,96.50
2023-02-12T06:37:48.057Z,96.30
2023-02-12T06:38:54.153Z,96.50
2023-02-12T06:39:56.603Z,97.10
2023-02-12T06:41:05.765Z,96.40
2023-02-12T06:42:10.340Z,96.30
2023-02-12T06:43:13.866Z,96.20
2023-02-12T06:44:17.669Z,96.30
2023-02-12T06:45:20.938Z,96.20
2023-02-12T06:46:28.292Z,96.30
2023-02-12T06:47:31.092Z,96.30
2023-02-12T06:48:35.257Z,96.20
2023-02-12T06:49:37.927Z,96.40
2023-02-12T06:50:41.836Z,96.30
2023-02-12T06:51:44.684Z,96.40
2023-02-12T06:52:48.606Z,96.40
2023-02-12T06:53:52.040Z,96.20
2023-02-12T06:54:55.714Z,95.90
2023-02-12T06:55:58.613Z,95.80
2023-02-12T06:57:03.988Z,96.00
2023-02-12T06:58:06.921Z,96.10
2023-02-12T06:59:16.258Z,96.00
2023-02-12T07:00:20.298Z,95.60
2023-02-12T07:01:27.315Z,95.20
2023-02-12T07:02:31.262Z,94.30
2023-02-12T07:03:34.618Z,94.40
2023-02-12T07:04:39.705Z,93.40
2023-02-12T07:05:43.038Z,92.70
2023-02-12T07:06:47.148Z,92.30
2023-02-12T07:07:50.272Z,91.70
2023-02-12T07:08:55.167Z,89.40
2023-02-12T07:09:57.627Z,87.00
2023-02-12T07:11:01.030Z,83.30
2023-02-12T07:12:05.895Z,82.70
2023-02-12T07:13:09.534Z,82.70
2023-02-12T07:14:15.282Z,82.80
2023-02-12T07:15:19.019Z,82.20
2023-02-12T07:16:23.106Z,81.50
2023-02-12T07:17:26.790Z,82.50
2023-02-12T07:18:29.253Z,82.80
2023-02-12T07:19:32.952Z,81.70
2023-02-12T07:20:35.627Z,80.30
2023-02-12T07:21:39.098Z,80.80
2023-02-12T07:22:41.695Z,81.00
2023-02-12T07:23:51.397Z,80.50
2023-02-12T07:24:54.177Z,85.00
2023-02-12T07:25:58.654Z,84.30
2023-02-12T07:27:01.057Z,80.30
2023-02-12T07:28:07.222Z,73.20
2023-02-12T07:29:12.758Z,72.40
2023-02-12T07:30:15.923Z,73.20
2023-02-12T07:31:23.206Z,73.70
2023-02-12T07:32:25.729Z,71.80
2023-02-12T07:33:29.450Z,70.90
2023-02-12T07:34:33.417Z,69.60
2023-02-12T07:35:36.021Z,69.20
2023-02-12T07:36:39.898Z,68.80
2023-02-12T07:37:43.700Z,67.80
2023-02-12T07:38:48.436Z,67.60
2023-02-12T07:39:52.526Z,67.20
2023-02-12T07:40:57.433Z,69.10
2023-02-12T07:42:00.942Z,67.20
2023-02-12T07:43:05.396Z,65.80
2023-02-12T07:44:14.356Z,66.00
2023-02-12T07:45:17.052Z,63.60
2023-02-12T07:46:23.017Z,63.90
2023-02-12T07:47:26.451Z,62.40
2023-02-12T07:48:28.811Z,61.50
2023-02-12T07:49:32.441Z,61.60
2023-02-12T07:50:35.197Z,60.70
2023-02-12T07:51:39.282Z,61.60
2023-02-12T07:52:41.945Z,61.50
2023-02-12T07:53:45.569Z,62.00
2023-02-12T07:54:48.732Z,62.30
2023-02-12T07:55:52.429Z,61.30
2023-02-12T07:56:56.047Z,60.40
2023-02-12T07:57:58.460Z,61.50
2023-02-12T07:59:08.105Z,60.20
2023-02-12T08:00:11.836Z,60.50
2023-02-12T08:01:21.257Z,61.00
2023-02-12T08:02:25.768Z,60.80
2023-02-12T08:03:29.260Z,59.90
2023-02-12T08:04:32.724Z,60.40
2023-02-12T08:05:35.838Z,60.40
2023-02-12T08:06:42.189Z,60.20
2023-02-12T08:07:44.579Z,60.40
2023-02-12T08:08:49.569Z,59.70
2023-02-12T08:09:53.572Z,59.40
2023-02-12T08:10:56.524Z,58.80
2023-02-12T08:12:00.142Z,57.70
2023-02-12T08:13:02.741Z,56.80
2023-02-12T08:14:07.858Z,56.80
2023-02-12T08:15:10.791Z,56.00
2023-02-12T08:16:17.912Z,55.00
2023-02-12T08:17:21.543Z,55.60
2023-02-12T08:18:24.010Z,54.20
2023-02-12T08:19:27.822Z,53.60
2023-02-12T08:20:30.621Z,53.60
2023-02-12T08:21:34.774Z,54.10
2023-02-12T08:22:38.496Z,54.60
2023-02-12T08:23:41.706Z,55.20
2023-02-12T08:24:45.284Z,55.10
2023-02-12T08:25:47.855Z,55.10
2023-02-12T08:26:52.496Z,55.20
2023-02-12T08:27:55.352Z,55.50
2023-02-12T08:29:02.487Z,54.30
2023-02-12T08:30:08.608Z,54.40
2023-02-12T08:31:13.937Z,54.00
2023-02-12T08:32:17.739Z,53.70
2023-02-12T08:33:20.188Z,53.90
2023-02-12T08:34:26.448Z,54.30
2023-02-12T08:35:29.102Z,54.30
2023-02-12T08:36:38.496Z,54.60
2023-02-12T08:37:43.535Z,53.80
2023-02-12T08:38:48.744Z,53.60
2023-02-12T08:39:51.674Z,54.50
2023-02-12T08:40:55.680Z,54.00
2023-02-12T08:42:01.654Z,54.20
2023-02-12T08:43:04.634Z,54.50
2023-02-12T08:44:08.338Z,55.00
2023-02-12T08:45:12.092Z,55.10
2023-02-12T08:46:17.746Z,55.10
2023-02-12T08:47:21.424Z,55.50
2023-02-12T08:48:24.063Z,55.80
2023-02-12T08:49:30.645Z,54.70
2023-02-12T08:50:34.701Z,54.90
2023-02-12T08:51:40.900Z,55.20
2023-02-12T08:52:44.098Z,55.10
2023-02-12T08:53:50.298Z,55.30
2023-02-12T08:54:53.153Z,54.60
2023-02-12T08:55:57.060Z,56.00
2023-02-12T08:57:03.460Z,57.10
2023-02-12T08:58:06.292Z,56.80
2023-02-12T08:59:10.544Z,56.40
2023-02-12T09:00:15.293Z,57.10
2023-02-12T09:01:22.591Z,56.30
2023-02-12T09:02:26.283Z,56.30
2023-02-12T09:03:29.028Z,55.90
2023-02-12T09:04:33.256Z,56.30
2023-02-12T09:05:39.675Z,56.90
2023-02-12T09:06:43.742Z,56.50
2023-02-12T09:07:46.656Z,56.10
2023-02-12T09:08:50.491Z,56.20
2023-02-12T09:09:54.353Z,56.80
2023-02-12T09:10:57.075Z,58.50
2023-02-12T09:12:00.551Z,56.50
2023-02-12T09:13:03.149Z,57.70
2023-02-12T09:14:09.186Z,59.30
2023-02-12T09:15:13.591Z,57.00
2023-02-12T09:16:17.441Z,56.10
2023-02-12T09:17:21.282Z,56.80
2023-02-12T09:18:23.686Z,56.30
2023-02-12T09:19:27.490Z,57.10
2023-02-12T09:20:30.452Z,56.70
2023-02-12T09:21:34.322Z,55.60
2023-02-12T09:22:38.351Z,55.30
2023-02-12T09:23:43.774Z,59.10
2023-02-12T09:24:46.770Z,59.60
2023-02-12T09:25:50.768Z,55.10
2023-02-12T09:26:54.480Z,55.30
2023-02-12T09:27:57.210Z,56.70
2023-02-12T09:29:02.646Z,56.80
2023-02-12T09:30:06.551Z,55.40
2023-02-12T09:31:14.211Z,53.80
2023-02-12T09:32:16.843Z,54.00
2023-02-12T09:33:20.666Z,51.60
2023-02-12T09:34:24.392Z,63.20
2023-02-12T09:35:27.029Z,95.10
2023-02-12T09:36:31.857Z,59.80
2023-02-12T09:37:34.469Z,53.70
2023-02-12T09:38:38.368Z,55.00
2023-02-12T09:39:42.459Z,52.90
2023-02-12T09:41:01.893Z,50.90
2023-02-12T09:42:28.007Z,53.90
2023-02-12T09:43:42.328Z,54.50
2023-02-12T09:44:53.959Z,52.30
2023-02-12T09:46:06.393Z,51.40
2023-02-12T09:47:20.052Z,53.70
2023-02-12T09:48:50.893Z,52.60
2023-02-12T09:50:26.923Z,55.00
2023-02-12T09:51:33.040Z,52.40
2023-02-12T09:52:38.454Z,58.00
2023-02-12T09:53:47.140Z,59.30
2023-02-12T09:54:50.792Z,54.10
2023-02-12T09:55:55.547Z,52.00
2023-02-12T09:57:02.265Z,55.20
2023-02-12T09:58:14.337Z,54.90
2023-02-12T09:59:30.392Z,54.10
2023-02-12T10:00:33.349Z,53.40
2023-02-12T10:01:37.690Z,57.50
2023-02-12T10:02:42.737Z,53.60
2023-02-12T10:03:48.544Z,57.50
2023-02-12T10:05:01.701Z,55.00
2023-02-12T10:06:10.470Z,54.20
2023-02-12T10:07:27.932Z,58.00
2023-02-12T10:08:46.834Z,53.40
2023-02-12T10:10:09.656Z,54.10
2023-02-12T10:11:37.547Z,52.50
2023-02-12T10:12:51.614Z,56.80
2023-02-12T10:14:09.843Z,53.20
2023-02-12T10:15:28.298Z,55.30
2023-02-12T10:16:45.564Z,53.50
2023-02-12T10:18:04.867Z,52.60
2023-02-12T10:19:31.417Z,53.00
2023-02-12T10:21:03.806Z,56.60
2023-02-12T10:22:19.453Z,53.30
2023-02-12T10:23:48.942Z,52.70
2023-02-12T10:25:11.511Z,52.60
2023-02-12T10:26:22.543Z,52.50
2023-02-12T10:27:39.783Z,54.70
2023-02-12T10:28:44.852Z,53.60
2023-02-12T10:29:50.064Z,54.00
2023-02-12T10:30:58.781Z,55.20
2023-02-12T10:32:08.978Z,55.60
2023-02-12T10:33:20.664Z,53.90
2023-02-12T10:34:26.315Z,59.40
2023-02-12T10:35:33.696Z,60.60
2023-02-12T10:36:44.572Z,57.00
2023-02-12T10:37:56.651Z,56.20
2023-02-12T10:39:07.137Z,53.90
2023-02-12T10:40:19.114Z,54.10
2023-02-12T10:41:28.504Z,53.20
2023-02-12T10:42:42.326Z,54.10
2023-02-12T10:43:46.133Z,56.00
2023-02-12T10:44:49.850Z,54.00
2023-02-12T10:45:52.525Z,53.90
2023-02-12T10:46:57.329Z,56.80
2023-02-12T10:48:09.052Z,55.80
2023-02-12T10:49:20.079Z,54.20
2023-02-12T10:50:39.175Z,54.40
2023-02-12T10:52:02.450Z,55.70
2023-02-12T10:53:05.048Z,54.60
2023-02-12T10:54:36.294Z,54.70
2023-02-12T10:55:40.314Z,54.90
2023-02-12T10:56:43.643Z,55.90
2023-02-12T10:57:47.646Z,59.00
2023-02-12T10:58:56.139Z,56.90
2023-02-12T11:00:22.165Z,55.40
2023-02-12T11:01:31.115Z,56.60
2023-02-12T11:02:34.942Z,54.80
2023-02-12T11:03:40.198Z,54.90
2023-02-12T11:04:44.648Z,55.30
2023-02-12T11:05:49.058Z,55.70
2023-02-12T11:06:59.483Z,54.40
2023-02-12T11:08:03.734Z,61.90
2023-02-12T11:09:07.729Z,57.90
2023-02-12T11:10:22.652Z,55.70
2023-02-12T11:11:30.768Z,55.30
2023-02-12T11:12:36.557Z,56.10
2023-02-12T11:13:44.230Z,55.90
2023-02-12T11:14:50.842Z,56.20
2023-02-12T11:15:55.526Z,56.20
2023-02-12T11:17:02.721Z,55.70
2023-02-12T11:18:08.837Z,56.80
2023-02-12T11:19:25.614Z,57.90
2023-02-12T11:20:35.214Z,56.50
2023-02-12T11:21:38.886Z,61.60
2023-02-12T11:22:54.351Z,57.30
2023-02-12T11:23:58.232Z,56.60
2023-02-12T11:25:02.729Z,58.30
2023-02-12T11:26:08.509Z,68.20
2023-02-12T11:27:24.545Z,61.10
2023-02-12T11:28:28.959Z,59.70
2023-02-12T11:29:34.119Z,61.00
2023-02-12T11:30:37.591Z,59.40
2023-02-12T11:31:41.905Z,58.10
2023-02-12T11:32:45.058Z,58.20
2023-02-12T11:34:07.030Z,57.90
2023-02-12T11:35:18.717Z,58.50
2023-02-12T11:36:27.522Z,59.90
2023-02-12T11:37:31.477Z,60.00
2023-02-12T11:38:38.785Z,62.20
2023-02-12T11:39:46.807Z,59.10
2023-02-12T11:40:50.798Z,58.10
2023-02-12T11:41:57.443Z,61.80
2023-02-12T11:43:05.912Z,58.80
2023-02-12T11:44:14.308Z,58.50
2023-02-12T11:45:23.074Z,58.40
2023-02-12T11:46:29.981Z,59.00
2023-02-12T11:47:36.267Z,58.90
2023-02-12T11:48:45.440Z,61.40
2023-02-12T11:49:54.779Z,60.30
2023-02-12T11:51:02.461Z,63.40
2023-02-12T11:52:08.979Z,63.00
2023-02-12T11:53:24.565Z,62.80
2023-02-12T11:54:32.526Z,71.00
2023-02-12T11:55:40.040Z,63.70
2023-02-12T11:56:46.741Z,60.80
2023-02-12T11:57:54.842Z,59.20
2023-02-12T11:59:22.677Z,63.00
2023-02-12T12:00:32.408Z,63.50
2023-02-12T12:01:42.205Z,60.70
2023-02-12T12:02:54.953Z,58.90
2023-02-12T12:04:06.772Z,58.60
2023-02-12T12:05:15.300Z,58.90
2023-02-12T12:06:29.440Z,59.60
2023-02-12T12:07:40.336Z,58.30
2023-02-12T12:08:49.967Z,64.80
2023-02-12T12:10:01.803Z,59.30
2023-02-12T12:11:12.945Z,64.20
2023-02-12T12:12:24.596Z,59.50
2023-02-12T12:13:36.600Z,58.30
2023-02-12T12:15:05.138Z,58.50
2023-02-12T12:16:32.842Z,58.10
2023-02-12T12:18:04.202Z,63.00
2023-02-12T12:19:34.566Z,78.60
2023-02-12T12:20:43.674Z,61.10
2023-02-12T12:21:55.559Z,61.20
2023-02-12T12:23:07.239Z,58.10
2023-02-12T12:24:17.796Z,58.50
2023-02-12T12:25:28.110Z,58.10
2023-02-12T12:26:35.858Z,58.50
2023-02-12T12:28:03.145Z,58.10
2023-02-12T12:29:18.484Z,57.90
2023-02-12T12:30:29.440Z,58.30
2023-02-12T12:31:38.173Z,58.70
2023-02-12T12:32:46.477Z,59.80
2023-02-12T12:33:57.512Z,65.00
2023-02-12T12:35:00.125Z,63.00
2023-02-12T12:36:42.154Z,59.30
2023-02-12T12:37:54.435Z,59.10
2023-02-12T12:39:09.760Z,58.90
2023-02-12T12:40:44.119Z,63.80
2023-02-12T12:42:14.654Z,60.50
2023-02-12T12:43:32.214Z,59.50
2023-02-12T12:45:02.316Z,58.80
2023-02-12T12:46:32.719Z,66.50
2023-02-12T12:47:54.691Z,61.00
2023-02-12T12:49:30.270Z,68.80
2023-02-12T12:50:50.777Z,62.40
2023-02-12T12:52:28.541Z,61.40
2023-02-12T12:53:52.286Z,64.90
2023-02-12T12:55:45.357Z,63.60
2023-02-12T12:57:02.731Z,62.90
2023-02-12T12:58:20.071Z,63.30
2023-02-12T12:59:56.735Z,64.40
2023-02-12T13:01:24.583Z,65.80
2023-02-12T13:02:58.303Z,64.20
2023-02-12T13:04:38.664Z,63.70
2023-02-12T13:06:19.832Z,62.60
2023-02-12T13:07:45.996Z,65.40
2023-02-12T13:09:22.564Z,63.50
2023-02-12T13:10:38.079Z,74.00
2023-02-12T13:11:56.013Z,68.00
2023-02-12T13:13:21.947Z,64.40
2023-02-12T13:14:40.207Z,64.00
2023-02-12T13:15:52.165Z,66.20
2023-02-12T13:17:09.078Z,61.00
2023-02-12T13:18:26.555Z,63.20
2023-02-12T13:19:43.833Z,65.10
2023-02-12T13:20:57.684Z,66.40
2023-02-12T13:22:09.300Z,81.60
2023-02-12T13:23:16.017Z,62.50
2023-02-12T13:24:32.185Z,61.90
2023-02-12T13:25:48.934Z,61.50
2023-02-12T13:26:58.515Z,60.40
2023-02-12T13:28:07.488Z,59.70
2023-02-12T13:29:18.276Z,62.40
2023-02-12T13:30:28.313Z,63.00
2023-02-12T13:31:36.882Z,63.00
2023-02-12T13:32:46.704Z,63.40
2023-02-12T13:33:56.568Z,62.80
2023-02-12T13:35:03.826Z,64.30
2023-02-12T13:36:10.346Z,65.20
2023-02-12T13:37:22.151Z,66.30
2023-02-12T13:38:30.180Z,66.70
2023-02-12T13:39:37.362Z,67.10
2023-02-12T13:40:41.564Z,68.20
2023-02-12T13:41:58.514Z,68.70
2023-02-12T13:43:19.364Z,69.10
2023-02-12T13:44:34.326Z,69.30
2023-02-12T13:45:49.397Z,69.70
2023-02-12T13:47:07.651Z,71.30
2023-02-12T13:48:33.138Z,72.90
2023-02-12T13:49:47.991Z,77.70
2023-02-12T13:51:03.016Z,76.30
2023-02-12T13:52:14.830Z,76.20
2023-02-12T13:53:28.037Z,77.90
2023-02-12T13:54:47.227Z,78.40
2023-02-12T13:56:08.320Z,79.00
2023-02-12T13:57:17.497Z,79.70
2023-02-12T13:58:39.342Z,80.80
2023-02-12T13:59:51.207Z,81.60
2023-02-12T14:01:02.521Z,82.00
2023-02-12T14:02:26.560Z,82.80
2023-02-12T14:03:33.213Z,82.40
2023-02-12T14:04:44.034Z,83.70
2023-02-12T14:05:48.202Z,84.40
2023-02-12T14:06:59.793Z,84.60
2023-02-12T14:08:09.349Z,85.30
2023-02-12T14:09:26.725Z,85.60
2023-02-12T14:10:34.496Z,88.20
2023-02-12T14:11:50.603Z,86.30
2023-02-12T14:12:58.133Z,86.60
2023-02-12T14:14:05.734Z,85.70
2023-02-12T14:15:22.819Z,84.80
2023-02-12T14:16:42.306Z,91.40
2023-02-12T14:17:57.083Z,90.00
2023-02-12T14:19:34.251Z,87.40
2023-02-12T14:20:40.245Z,87.80
2023-02-12T14:21:43.436Z,88.00
2023-02-12T14:23:29.242Z,88.80
2023-02-12T14:24:51.181Z,89.80
2023-02-12T14:26:01.686Z,89.40
2023-02-12T14:27:19.586Z,89.40
2023-02-12T14:28:34.545Z,89.90
2023-02-12T14:29:37.374Z,90.10
2023-02-12T14:30:41.951Z,90.20
2023-02-12T14:31:45.734Z,90.30
2023-02-12T14:33:23.791Z,90.30
2023-02-12T14:34:52.121Z,90.80
2023-02-12T14:36:15.142Z,90.90
2023-02-12T14:37:34.503Z,91.90
2023-02-12T14:39:05.364Z,90.60
2023-02-12T14:40:42.734Z,90.90
2023-02-12T14:41:48.283Z,91.60
2023-02-12T14:42:58.524Z,91.50
2023-02-12T14:44:44.778Z,91.40
2023-02-12T14:45:49.132Z,94.10